Flight Track Log - Related Links

Times and Time Zones

All times are in EDT time to prevent confusion due to time zone crossing. See the GUG717 flight status page for this flight to view local times or setup timezone preferences in your user account.

Time Position Orientation Groundspeed Altitude Reporting Facility
EDT Latitude Longitude Course Direction KTS MPH feet Rate Location/Type
Fri 05:11:00 PM 12.7435 -87.4936 114° Southeast  Level Estimated
Fri 05:12:00 PM 12.7184 -87.4380 115° Southeast  Level Estimated
Fri 05:13:00 PM 12.6933 -87.3823 115° Southeast  Level Estimated
Fri 05:14:00 PM 12.6682 -87.3267 115° Southeast  Level Estimated
Fri 05:15:00 PM 12.6431 -87.2711 115° Southeast  Level Estimated
Fri 05:16:00 PM 12.6180 -87.2156 115° Southeast  Level Estimated
Fri 05:17:00 PM 12.5928 -87.1600 115° Southeast  Level Estimated
Fri 05:18:00 PM 12.5677 -87.1044 115° Southeast  Level Estimated
Fri 05:19:00 PM 12.5425 -87.0489 115° Southeast  Level Estimated
Fri 05:20:00 PM 12.5174 -86.9933 115° Southeast  Level Estimated
Fri 05:21:00 PM 12.4922 -86.9378 115° Southeast  Level Estimated
Fri 05:22:00 PM 12.4670 -86.8823 115° Southeast  Level Estimated
Fri 05:23:00 PM 12.4418 -86.8268 115° Southeast  Level Estimated
Fri 05:24:00 PM 12.4166 -86.7713 115° Southeast  Level Estimated
Fri 05:25:00 PM 12.3913 -86.7158 115° Southeast  Level Estimated
Fri 05:26:00 PM 12.3661 -86.6603 115° Southeast  Level Estimated
Fri 05:27:00 PM 12.3408 -86.6048 115° Southeast  Level Estimated
Fri 05:28:00 PM 12.3156 -86.5494 115° Southeast  Level Estimated
Fri 05:29:00 PM 12.2903 -86.4939 115° Southeast  Level Estimated
Fri 05:30:00 PM 12.2650 -86.4385 115° Southeast  Level Estimated
Fri 05:31:00 PM 12.2397 -86.3831 115° Southeast  Level Estimated
Fri 05:32:00 PM 12.2144 -86.3277 115° Southeast  Level Estimated
Fri 05:33:00 PM 12.1891 -86.2723 115° Southeast  Level Estimated
Fri 05:34:00 PM 12.1638 -86.2169 115° Southeast  Level Estimated
Fri 05:35:00 PM 12.1415 -86.1682 115° Southeast  Level Estimated
Fri 05:36:00 PM 12.1415 -86.1682 26° Northeast  Level Estimated
Fri 05:37:00 PM 12.1415 -86.1682 26° Northeast  Level Estimated
Fri 05:38:00 PM 12.1415 -86.1682 26° Northeast  Level Estimated
Fri 05:39:00 PM 12.1415 -86.1682 26° Northeast  Level Estimated
Fri 05:40:00 PM 12.1415 -86.1682 26° Northeast  Level Estimated
Fri 05:41:00 PM 12.1415 -86.1682 26° Northeast  Level Estimated
Fri 05:42:00 PM 12.1415 -86.1682 26° Northeast  Level Estimated
Fri 05:43:00 PM 12.1415 -86.1682 26° Northeast  Level Estimated
Fri 05:44:00 PM 12.1415 -86.1682 26° Northeast  Level Estimated
Fri 05:45:00 PM 12.1415 -86.1682 26° Northeast  Level Estimated
Fri 05:46:00 PM 12.1415 -86.1682 26° Northeast  Level Estimated
Fri 05:47:00 PM 12.1415 -86.1682 26° Northeast  Level Estimated
Fri 05:48:00 PM 12.1415 -86.1682 26° Northeast  Level Estimated
Fri 05:49:00 PM 12.1415 -86.1682 26° Northeast  Level Estimated
Fri 05:50:00 PM 12.1415 -86.1682 26° Northeast  Level Estimated
Fri 05:51:00 PM 12.1415 -86.1682 26° Northeast  Level Estimated

Login

Don't have an account? Register now (free) for customized features, flight alerts, and more!